Time;durP1;ratioP1;P1;durP2;ratioP2;P2;SDS_P1;SDS_P2;PMS_P1;PMS_P2;Temp;Humidity;BMP_temperature;BMP_pressure;BME280_temperature;BME280_humidity;BME280_pressure;Samples;Min_cycle;Max_cycle;Signal;HPM_P1;HPM_P2
2022/12/17 13:06:12;;;;;;;44.90;21.75;;;;;;;-0.42;70.82;100861.50;5071508;28;20471;-85
2022/12/17 13:08:38;;;;;;;31.90;17.35;;;;;;;-0.41;71.63;100855.16;5071050;28;20495;-86
2022/12/17 13:11:32;;;;;;;33.58;20.20;;;;;;;-0.34;70.20;100853.47;5072211;28;20031;-85
2022/12/17 13:14:05;;;;;;;30.15;18.50;;;;;;;-0.27;70.33;100850.97;5057046;28;20036;-86
2022/12/17 13:16:50;;;;;;;36.70;21.25;;;;;;;-0.33;70.04;100851.63;5070697;28;20048;-85
2022/12/17 13:19:32;;;;;;;34.75;21.17;;;;;;;-0.35;70.04;100849.13;5071633;28;20085;-86
2022/12/17 13:22:13;;;;;;;34.33;20.15;;;;;;;-0.39;70.27;100850.47;5071560;28;20116;-86
2022/12/17 13:24:39;;;;;;;35.47;20.38;;;;;;;-0.29;70.46;100836.91;5071083;28;20515;-86
2022/12/17 13:27:33;;;;;;;41.15;19.88;;;;;;;-0.38;69.84;100831.53;5067457;28;20036;-85
2022/12/17 13:30:23;;;;;;;38.87;22.80;;;;;;;-0.31;70.24;100839.75;5070126;28;20064;-86
2022/12/17 13:33:24;;;;;;;29.90;18.90;;;;;;;-0.43;70.75;100831.19;5071911;28;20253;-86
2022/12/17 13:36:34;;;;;;;30.25;18.67;;;;;;;-0.30;71.07;100830.69;5069225;28;20036;-91
2022/12/17 13:39:08;;;;;;;34.03;20.80;;;;;;;-0.20;70.68;100819.00;5007080;28;20037;-89
2022/12/17 13:41:35;;;;;;;34.78;19.02;;;;;;;-0.21;71.16;100828.00;5008405;28;20113;-89
2022/12/17 13:44:24;;;;;;;33.80;19.95;;;;;;;-0.08;70.87;100822.97;5043143;28;20045;-86
2022/12/17 13:46:51;;;;;;;40.35;21.17;;;;;;;0.05;70.79;100819.81;5069203;28;20059;-84
2022/12/17 13:49:23;;;;;;;28.83;19.50;;;;;;;0.06;70.93;100818.78;5065927;28;20310;-88
2022/12/17 13:52:00;;;;;;;36.65;20.08;;;;;;;0.19;69.83;100822.81;5084673;28;20798;-88
2022/12/17 13:54:26;;;;;;;25.65;16.20;;;;;;;0.15;70.38;100824.16;5068500;28;20040;-87
2022/12/17 13:56:52;;;;;;;26.27;16.73;;;;;;;0.11;70.74;100827.19;5067923;28;20033;-87
2022/12/17 13:59:23;;;;;;;37.58;20.58;;;;;;;0.15;70.68;100829.50;5068820;28;20036;-85
2022/12/17 14:01:53;;;;;;;29.05;15.88;;;;;;;0.28;69.32;100827.16;5067592;28;20024;-87
2022/12/17 14:04:25;;;;;;;21.85;13.60;;;;;;;0.32;68.70;100830.34;5069277;28;20222;-85
2022/12/17 14:06:52;;;;;;;18.52;11.80;;;;;;;0.39;67.58;100827.78;5069755;28;20485;-86
2022/12/17 14:09:20;;;;;;;24.17;12.90;;;;;;;0.40;66.33;100824.97;5070253;28;20032;-86
2022/12/17 14:14:45;;;;;;;21.27;12.55;;;;;;;0.46;65.52;100828.81;5068881;28;20108;-88
2022/12/17 14:17:16;;;;;;;22.50;12.25;;;;;;;0.39;65.72;100822.44;5069492;28;20036;-89
2022/12/17 14:19:42;;;;;;;18.40;10.23;;;;;;;0.32;64.81;100827.66;5069312;28;20028;-84
2022/12/17 14:22:15;;;;;;;14.75;9.20;;;;;;;0.30;64.76;100825.16;5068883;28;20032;-86
2022/12/17 14:24:40;;;;;;;15.27;8.82;;;;;;;0.23;63.85;100821.44;5068838;28;20094;-88
2022/12/17 14:27:22;;;;;;;18.55;9.13;;;;;;;0.23;64.93;100827.66;5070127;28;20045;-88
2022/12/17 14:29:47;;;;;;;184.90;124.78;;;;;;;0.29;64.15;100826.16;5069532;28;20052;-86
2022/12/17 14:32:31;;;;;;;47.53;30.00;;;;;;;0.40;63.91;100832.16;5069018;28;20063;-86
2022/12/17 14:34:58;;;;;;;15.32;9.73;;;;;;;0.41;63.73;100829.31;5068381;28;20265;-86
2022/12/17 14:37:24;;;;;;;13.88;8.88;;;;;;;0.47;62.77;100835.81;5069049;28;20055;-88
2022/12/17 14:39:53;;;;;;;15.25;9.15;;;;;;;0.43;62.35;100839.84;5069476;28;20040;-86
2022/12/17 14:42:24;;;;;;;16.70;9.88;;;;;;;0.23;63.59;100842.91;5068002;28;20035;-85
2022/12/17 14:44:56;;;;;;;15.88;9.40;;;;;;;0.11;64.08;100843.28;5068698;28;20119;-86
2022/12/17 14:47:25;;;;;;;17.83;10.00;;;;;;;0.18;62.90;100842.59;5067099;28;20032;-86
2022/12/17 14:49:58;;;;;;;16.13;9.23;;;;;;;0.03;63.57;100842.44;5067960;28;20089;-90
2022/12/17 14:52:40;;;;;;;20.02;9.45;;;;;;;0.02;63.72;100844.25;5069987;28;20111;-86
2022/12/17 14:55:50;;;;;;;14.40;8.02;;;;;;;0.06;63.14;100840.25;5069535;28;20500;-89
2022/12/17 14:58:18;;;;;;;15.38;8.25;;;;;;;-0.01;63.25;100839.25;5068277;28;20085;-91
2022/12/17 15:00:47;;;;;;;14.77;8.27;;;;;;;0.10;62.40;100846.94;5065392;28;20332;-90
2022/12/17 15:03:33;;;;;;;14.73;7.53;;;;;;;-0.09;62.97;100852.66;5068801;28;20028;-86
2022/12/17 15:06:05;;;;;;;15.98;8.65;;;;;;;-0.32;63.34;100846.09;5068644;28;20469;-87
2022/12/17 15:08:50;;;;;;;14.85;8.07;;;;;;;-0.53;64.26;100849.25;5068799;28;20032;-88
2022/12/17 15:11:17;;;;;;;;;;;;;;;-0.68;64.18;100849.88;5070123;28;20051;-86
2022/12/17 15:13:42;;;;;;;18.25;10.15;;;;;;;-0.70;64.33;100851.91;5068544;28;19991;-89
2022/12/17 15:16:07;;;;;;;18.05;9.43;;;;;;;-0.90;64.47;100849.50;5067967;28;20030;-89
2022/12/17 15:18:33;;;;;;;17.63;9.07;;;;;;;-0.91;64.93;100858.50;5065633;28;20469;-90
2022/12/17 15:20:59;;;;;;;15.75;8.15;;;;;;;-1.00;65.05;100852.31;5068114;28;20016;-86
2022/12/17 15:23:24;;;;;;;16.92;8.90;;;;;;;-0.99;65.00;100853.13;5066014;28;20024;-87
2022/12/17 15:25:51;;;;;;;15.88;9.07;;;;;;;-1.01;64.87;100852.44;5069266;28;20400;-91
2022/12/17 15:28:19;;;;;;;15.63;10.70;;;;;;;-1.07;64.88;100860.13;5067228;28;20120;-91
2022/12/17 15:30:45;;;;;;;20.95;9.73;;;;;;;-1.26;64.77;100866.56;5066365;28;20066;-88
2022/12/17 15:33:10;;;;;;;16.20;8.30;;;;;;;-1.45;65.94;100864.94;5067808;28;20056;-87
2022/12/17 15:35:37;;;;;;;25.80;10.65;;;;;;;-1.45;65.80;100871.16;5068662;28;20042;-90
2022/12/17 15:38:04;;;;;;;16.15;8.77;;;;;;;-1.51;65.66;100877.13;5066543;28;20064;-86
2022/12/17 15:40:29;;;;;;;16.52;9.30;;;;;;;-1.55;65.39;100879.28;5067524;28;20036;-90
2022/12/17 15:43:10;;;;;;;19.42;9.98;;;;;;;-1.74;66.15;100880.31;5066301;28;20033;-91
2022/12/17 15:45:46;;;;;;;17.52;9.60;;;;;;;-1.71;66.14;100892.53;5068508;28;20084;-84
2022/12/17 15:48:13;;;;;;;20.15;11.65;;;;;;;-1.77;66.26;100891.31;5066402;28;20060;-87
2022/12/17 15:50:39;;;;;;;22.90;12.15;;;;;;;-1.72;66.56;100896.19;5067834;28;20032;-89
2022/12/17 15:53:04;;;;;;;21.77;12.85;;;;;;;-1.84;67.20;100893.78;5067564;28;20040;-86
2022/12/17 15:55:30;;;;;;;21.67;13.00;;;;;;;-1.78;66.55;100898.50;5066991;28;20025;-90
2022/12/17 15:57:56;;;;;;;19.85;10.90;;;;;;;-1.85;66.93;100891.25;5068828;28;20048;-92
2022/12/17 16:00:23;;;;;;;25.05;13.98;;;;;;;-1.96;67.28;100895.00;5066104;28;20111;-90
2022/12/17 16:02:49;;;;;;;27.23;12.20;;;;;;;-1.91;66.92;100903.41;5066530;28;20107;-90
2022/12/17 16:05:14;;;;;;;28.95;12.60;;;;;;;-2.07;67.60;100891.56;5070332;28;20131;-85
2022/12/17 16:07:42;;;;;;;21.95;12.57;;;;;;;-2.18;67.75;100889.97;5067350;28;20163;-87
2022/12/17 16:10:08;;;;;;;26.15;12.02;;;;;;;-2.17;67.56;100890.78;5069117;28;20119;-86
2022/12/17 16:12:33;;;;;;;18.60;11.45;;;;;;;-2.08;67.21;100895.25;5068855;28;20078;-89
2022/12/17 16:14:59;;;;;;;20.58;12.25;;;;;;;-2.11;67.17;100896.38;5068909;28;20040;-89
2022/12/17 16:17:24;;;;;;;24.75;12.60;;;;;;;-2.03;67.12;100908.97;5068556;28;20457;-90
2022/12/17 16:19:49;;;;;;;19.03;11.63;;;;;;;-1.98;67.10;100913.03;5066860;28;20158;-87
2022/12/17 16:22:14;;;;;;;20.27;12.27;;;;;;;-1.95;67.06;100913.56;5065044;28;20287;-87
2022/12/17 16:24:40;;;;;;;20.23;12.00;;;;;;;-2.00;66.70;100910.50;5067166;28;20036;-89
2022/12/17 16:27:06;;;;;;;22.92;12.00;;;;;;;-2.09;66.72;100911.41;5068848;28;20035;-89
2022/12/17 16:29:31;;;;;;;21.02;14.07;;;;;;;-2.28;66.83;100919.41;5068109;28;20032;-86
2022/12/17 16:31:57;;;;;;;17.75;10.82;;;;;;;-2.34;67.30;100925.38;5068103;28;20093;-89
2022/12/17 16:34:22;;;;;;;19.25;12.50;;;;;;;-2.28;66.78;100929.28;5069027;28;20035;-87
2022/12/17 16:36:47;;;;;;;19.67;11.45;;;;;;;-2.34;67.64;100928.06;5068628;28;20024;-89
2022/12/17 16:39:15;;;;;;;19.80;12.82;;;;;;;-2.29;67.48;100920.44;5065948;28;20033;-90
2022/12/17 16:41:41;;;;;;;20.40;11.68;;;;;;;-2.35;66.91;100927.22;5068727;28;20409;-85
2022/12/17 16:44:06;;;;;;;17.25;11.93;;;;;;;-2.42;66.95;100930.66;5068762;28;20036;-88
2022/12/17 16:46:33;;;;;;;21.95;12.93;;;;;;;-2.35;67.19;100931.72;5067306;28;20057;-88
2022/12/17 16:49:12;;;;;;;23.40;12.57;;;;;;;-2.56;67.08;100940.81;5067793;28;20066;-88
2022/12/17 16:51:38;;;;;;;28.75;14.05;;;;;;;-2.59;67.21;100938.47;5066859;28;20534;-91
2022/12/17 16:54:06;;;;;;;24.52;12.35;;;;;;;-2.62;67.45;100944.94;5067369;28;20377;-87
2022/12/17 16:56:31;;;;;;;20.80;11.23;;;;;;;-2.53;67.60;100943.22;5068877;28;20020;-88
2022/12/17 16:58:56;;;;;;;20.98;12.80;;;;;;;-2.55;67.18;100939.00;5067887;28;20056;-83
2022/12/17 17:01:25;;;;;;;21.67;13.05;;;;;;;-2.42;67.44;100946.66;5070576;28;20279;-90
2022/12/17 17:03:50;;;;;;;24.58;13.32;;;;;;;-2.52;67.15;100950.22;5071275;28;20047;-85
2022/12/17 17:06:17;;;;;;;24.42;14.18;;;;;;;-2.48;67.77;100950.75;5071324;28;20033;-86
2022/12/17 17:08:42;;;;;;;21.50;12.35;;;;;;;-2.39;66.68;100951.69;5070896;28;20123;-86
2022/12/17 17:11:21;;;;;;;20.77;11.70;;;;;;;-2.41;66.77;100954.53;5072193;28;20107;-86
2022/12/17 17:13:52;;;;;;;18.80;11.85;;;;;;;-2.40;67.21;100948.19;5070079;28;20033;-88
2022/12/17 17:16:20;;;;;;;18.27;13.10;;;;;;;-2.36;66.75;100946.06;5070295;28;20032;-84
2022/12/17 17:18:46;;;;;;;19.85;12.05;;;;;;;-2.39;66.83;100931.19;5071333;28;20393;-87
2022/12/17 17:21:30;;;;;;;23.70;11.90;;;;;;;-2.47;66.80;100928.41;5070958;28;20119;-86
2022/12/17 17:24:07;;;;;;;19.90;12.93;;;;;;;-2.30;66.10;100921.44;5068831;28;20037;-86
2022/12/17 17:26:33;;;;;;;22.63;13.65;;;;;;;-2.32;66.95;100923.41;5068953;28;20036;-86
2022/12/17 17:28:59;;;;;;;23.67;12.60;;;;;;;-2.33;66.26;100927.06;5071960;28;20032;-87
2022/12/17 17:31:25;;;;;;;22.98;12.73;;;;;;;-2.36;66.45;100925.53;5069795;28;20039;-91
2022/12/17 17:33:51;;;;;;;29.35;17.10;;;;;;;-2.18;66.45;100927.41;5069402;28;20028;-88
2022/12/17 17:36:18;;;;;;;22.27;14.88;;;;;;;-1.74;65.41;100925.78;5068238;28;20119;-87
2022/12/17 17:38:44;;;;;;;23.52;13.05;;;;;;;-1.69;64.57;100936.00;5069036;28;20090;-89
2022/12/17 17:41:12;;;;;;;24.35;12.30;;;;;;;-1.46;64.82;100943.53;5069947;28;20032;-89
2022/12/17 17:43:37;;;;;;;27.13;16.42;;;;;;;-1.39;64.27;100944.59;5070759;28;20395;-87
2022/12/17 17:46:15;;;;;;;27.33;14.98;;;;;;;-1.21;63.45;100938.34;5070019;28;20048;-85
2022/12/17 17:48:41;;;;;;;22.45;12.15;;;;;;;-1.23;63.80;100948.38;5069446;28;20396;-88
2022/12/17 17:51:11;;;;;;;17.83;10.65;;;;;;;-1.12;63.44;100949.97;5070722;28;20044;-88
2022/12/17 17:53:36;;;;;;;21.55;9.68;;;;;;;-1.19;63.12;100945.22;5067496;28;20131;-89
2022/12/17 17:56:04;;;;;;;26.67;10.88;;;;;;;-1.09;63.08;100944.28;5069526;28;20120;-91
2022/12/17 17:58:29;;;;;;;16.70;8.52;;;;;;;-1.13;63.55;100954.47;5070576;28;20687;-89
2022/12/17 18:00:54;;;;;;;17.02;11.48;;;;;;;-1.10;63.51;100948.78;5071751;28;20071;-87
2022/12/17 18:03:19;;;;;;;21.85;11.80;;;;;;;-0.99;62.85;100938.81;5071067;28;20115;-87
2022/12/17 18:05:45;;;;;;;25.80;13.87;;;;;;;-1.04;62.75;100936.63;5070674;28;20365;-90
2022/12/17 18:08:10;;;;;;;23.23;13.83;;;;;;;-0.98;62.78;100940.50;5068661;28;20478;-89
2022/12/17 18:10:36;;;;;;;17.85;11.50;;;;;;;-1.00;63.08;100937.13;5068772;28;20265;-88
2022/12/17 18:15:45;;;;;;;17.75;9.85;;;;;;;-0.90;62.73;100942.38;5070633;28;20047;-89
2022/12/17 18:18:10;;;;;;;15.57;8.85;;;;;;;-0.96;62.94;100949.22;5070302;28;20032;-89
2022/12/17 18:20:35;;;;;;;18.60;10.87;;;;;;;-0.83;62.98;100948.75;5070400;28;20477;-88
2022/12/17 18:23:01;;;;;;;23.25;12.85;;;;;;;-0.86;62.62;100949.94;5068611;28;20269;-90
2022/12/17 18:25:26;;;;;;;19.13;10.90;;;;;;;-0.83;62.72;100952.28;5068849;28;20037;-89
2022/12/17 18:27:52;;;;;;;22.60;13.25;;;;;;;-0.88;63.01;100951.94;5070047;28;20777;-88
2022/12/17 18:30:18;;;;;;;21.05;11.23;;;;;;;-0.76;62.85;100957.00;5068752;28;20024;-89
2022/12/17 18:32:44;;;;;;;18.52;11.45;;;;;;;-0.76;62.79;100954.31;5070608;28;20040;-88
2022/12/17 18:35:09;;;;;;;20.17;11.63;;;;;;;-0.80;63.14;100945.78;5068348;28;20078;-88
2022/12/17 18:37:35;;;;;;;19.13;10.90;;;;;;;-0.86;63.30;100944.59;5068798;28;20098;-89
2022/12/17 18:40:00;;;;;;;16.25;11.48;;;;;;;-0.83;63.40;100960.31;5070179;28;20040;-90
2022/12/17 18:45:14;;;;;;;15.73;11.98;;;;;;;-0.78;63.63;100957.16;5049803;28;20078;-89
2022/12/17 18:47:41;;;;;;;24.60;12.80;;;;;;;-0.80;63.30;100956.50;5070836;28;20040;-90
2022/12/17 18:50:07;;;;;;;16.98;11.38;;;;;;;-0.79;63.37;100970.72;5070086;28;20037;-88
2022/12/17 18:52:33;;;;;;;14.98;9.13;;;;;;;-0.77;63.23;100974.09;5068338;28;20051;-91
2022/12/17 18:54:58;;;;;;;24.70;12.73;;;;;;;-0.77;63.63;100968.72;5069654;28;20198;-88
2022/12/17 18:57:23;;;;;;;17.33;10.20;;;;;;;-0.73;63.62;100975.41;5067324;28;20051;-91
2022/12/17 18:59:48;;;;;;;19.23;11.93;;;;;;;-0.81;63.65;100972.72;5064509;28;20273;-88
2022/12/17 19:02:14;;;;;;;21.45;10.60;;;;;;;-0.90;64.16;100975.34;5070605;28;20277;-88
2022/12/17 19:04:39;;;;;;;21.30;11.57;;;;;;;-0.80;63.53;100974.41;5070697;28;20119;-88
2022/12/17 19:07:04;;;;;;;16.45;11.10;;;;;;;-0.78;63.67;100978.59;5070522;28;20044;-92
2022/12/17 19:09:34;;;;;;;17.60;11.05;;;;;;;-1.03;64.15;100977.59;5070540;28;20047;-89
2022/12/17 19:12:00;;;;;;;26.50;13.50;;;;;;;-0.93;64.13;100975.66;5070736;28;20024;-91
2022/12/17 19:14:26;;;;;;;22.25;12.82;;;;;;;-0.81;63.79;100978.91;5070647;28;20189;-86
2022/12/17 19:16:53;;;;;;;14.82;8.48;;;;;;;-0.74;63.42;100979.13;5070518;28;20602;-88
2022/12/17 19:19:20;;;;;;;23.20;11.60;;;;;;;-0.80;63.48;100982.44;5070716;28;20036;-88
2022/12/17 19:21:45;;;;;;;17.13;10.57;;;;;;;-0.85;63.42;100973.03;5070094;28;20103;-89
2022/12/17 19:24:15;;;;;;;16.60;10.63;;;;;;;-0.85;63.42;100982.91;5068502;28;20104;-90
2022/12/17 19:26:42;;;;;;;20.98;10.88;;;;;;;-0.83;63.33;100973.72;5069007;28;20111;-90
2022/12/17 19:29:09;;;;;;;20.15;10.60;;;;;;;-0.76;63.31;100975.75;5069589;28;20128;-88
2022/12/17 19:31:35;;;;;;;22.60;8.80;;;;;;;-0.83;62.97;100972.88;5068722;28;20115;-90
2022/12/17 19:34:02;;;;;;;17.35;9.60;;;;;;;-0.73;63.08;100978.09;5069581;28;20127;-87
2022/12/17 19:36:30;;;;;;;19.08;10.23;;;;;;;-0.74;63.10;100963.03;5070236;28;20036;-88
2022/12/17 19:38:57;;;;;;;13.75;7.90;;;;;;;-0.68;62.88;100970.44;5069260;28;20365;-90
2022/12/17 19:41:24;;;;;;;12.90;7.38;;;;;;;-0.83;63.04;100968.34;5070309;28;20052;-90
2022/12/17 19:43:55;;;;;;;18.00;9.82;;;;;;;-0.79;62.79;100965.38;5069509;28;20047;-89
2022/12/17 19:46:22;;;;;;;20.15;8.77;;;;;;;-0.76;62.83;100976.59;5069587;28;20056;-92
2022/12/17 19:48:48;;;;;;;16.15;9.20;;;;;;;-0.74;62.75;100976.44;5069370;28;20048;-91
2022/12/17 19:51:15;;;;;;;17.35;10.23;;;;;;;-0.69;62.91;100975.97;5069468;28;20047;-90
2022/12/17 19:53:42;;;;;;;18.05;9.95;;;;;;;-0.79;62.70;100984.94;5069411;28;20106;-90
2022/12/17 19:56:27;;;;;;;41.78;10.45;;;;;;;-0.83;62.79;100992.47;5069634;28;20033;-91
2022/12/17 19:59:00;;;;;;;33.08;15.52;;;;;;;-0.76;62.86;100986.47;5070245;28;20056;-90
2022/12/17 20:01:29;;;;;;;20.20;11.85;;;;;;;-0.71;62.15;100994.84;5070074;28;20035;-91
2022/12/17 20:03:55;;;;;;;19.65;9.73;;;;;;;-0.60;62.15;100999.09;5068755;28;20044;-90
2022/12/17 20:06:22;;;;;;;16.13;9.80;;;;;;;-0.68;62.26;100993.69;5068890;28;20036;-88
2022/12/17 20:08:48;;;;;;;17.67;11.25;;;;;;;-0.72;62.46;100999.41;5068875;28;20068;-88
2022/12/17 20:11:33;;;;;;;24.00;11.25;;;;;;;-0.59;62.40;100992.75;5069516;28;20516;-91
2022/12/17 20:14:03;;;;;;;15.68;7.72;;;;;;;-0.61;62.40;101003.63;5069127;28;20041;-90
2022/12/17 20:16:31;;;;;;;13.82;8.07;;;;;;;-0.69;62.19;101008.94;5068482;28;20422;-87
2022/12/17 20:19:00;;;;;;;13.80;7.72;;;;;;;-0.70;62.21;101009.94;5070006;28;20051;-89
2022/12/17 20:21:26;;;;;;;14.98;8.93;;;;;;;-0.67;61.96;101006.94;5068717;28;20024;-88
2022/12/17 20:23:52;;;;;;;18.70;9.43;;;;;;;-0.63;62.07;101002.94;5069802;28;20473;-89
2022/12/17 20:26:18;;;;;;;14.57;7.97;;;;;;;-0.56;61.81;101013.00;5069314;28;20043;-87
2022/12/17 20:28:44;;;;;;;19.08;8.98;;;;;;;-0.88;62.74;101008.19;5069358;28;20131;-88
2022/12/17 20:31:10;;;;;;;11.18;6.97;;;;;;;-0.69;62.62;101016.16;5069105;28;20115;-88
2022/12/17 20:33:36;;;;;;;14.10;6.53;;;;;;;-0.76;62.49;101018.63;5069590;28;20067;-88
2022/12/17 20:36:14;;;;;;;18.67;9.80;;;;;;;-0.72;62.14;101011.94;5071098;28;20071;-88
2022/12/17 20:38:40;;;;;;;13.68;7.80;;;;;;;-0.67;62.42;101004.25;5073596;28;20447;-87
2022/12/17 20:41:14;;;;;;;16.23;7.55;;;;;;;-0.61;62.13;101006.28;5073947;28;20055;-89
2022/12/17 20:43:40;;;;;;;24.80;9.05;;;;;;;-0.61;61.86;101014.34;5072749;28;20051;-88
2022/12/17 20:46:08;;;;;;;20.48;11.40;;;;;;;-0.64;62.00;101017.34;5073127;28;20432;-89
2022/12/17 20:48:34;;;;;;;27.58;12.02;;;;;;;-0.63;62.07;101013.66;5073271;28;20056;-88
2022/12/17 20:51:04;;;;;;;22.13;10.60;;;;;;;-0.68;61.87;101015.97;5073379;28;20032;-88
2022/12/17 20:53:29;;;;;;;43.78;15.85;;;;;;;-0.73;61.79;101010.25;5072772;28;20477;-88
2022/12/17 20:56:02;;;;;;;19.92;10.43;;;;;;;-0.69;62.18;101008.13;5073119;28;20071;-89
2022/12/17 20:58:28;;;;;;;20.52;6.13;;;;;;;-0.53;61.62;101013.53;5073165;28;20106;-88
2022/12/17 21:01:01;;;;;;;12.75;6.65;;;;;;;-0.66;61.83;101013.13;5073411;28;20032;-88
2022/12/17 21:03:26;;;;;;;11.30;5.93;;;;;;;-0.56;61.91;101007.66;5071594;28;20433;-90
2022/12/17 21:05:51;;;;;;;11.68;5.15;;;;;;;-0.57;61.88;101006.81;5073070;28;20607;-90
2022/12/17 21:08:17;;;;;;;9.33;5.47;;;;;;;-0.72;61.88;101014.63;5072055;28;20050;-88
2022/12/17 21:10:42;;;;;;;10.75;5.43;;;;;;;-0.86;63.00;101022.25;5073629;28;20722;-89
2022/12/17 21:15:53;;;;;;;11.07;5.85;;;;;;;-1.12;63.11;101015.03;5071961;28;20372;-87
2022/12/17 21:18:18;;;;;;;11.82;5.45;;;;;;;-1.33;63.59;101018.06;5072481;28;20537;-88
2022/12/17 21:20:55;;;;;;;11.98;5.55;;;;;;;-1.50;64.23;101015.25;5072869;28;20639;-87
2022/12/17 21:23:20;;;;;;;14.52;6.10;;;;;;;-1.39;64.26;101016.84;5071994;28;20440;-89
2022/12/17 21:25:45;;;;;;;14.20;7.68;;;;;;;-1.37;63.82;101020.22;5072416;28;20089;-88
2022/12/17 21:28:11;;;;;;;14.60;7.20;;;;;;;-1.37;63.56;101022.03;5072089;28;20489;-88
2022/12/17 21:30:36;;;;;;;16.80;7.18;;;;;;;-1.66;64.27;101019.44;5073062;28;20029;-88
2022/12/17 21:33:01;;;;;;;11.90;6.30;;;;;;;-1.54;64.62;101027.25;5073035;28;20040;-87
2022/12/17 21:35:27;;;;;;;9.65;5.43;;;;;;;-1.51;63.69;101020.75;5073794;28;20473;-88
2022/12/17 21:37:52;;;;;;;12.10;7.00;;;;;;;-1.66;64.99;101029.31;5073029;28;20474;-87
2022/12/17 21:40:17;;;;;;;11.43;5.82;;;;;;;-1.63;64.63;101030.84;5073156;28;20012;-88
2022/12/17 21:43:00;;;;;;;16.92;9.35;;;;;;;-1.55;64.63;101034.44;5072505;28;20443;-88
2022/12/17 21:45:26;;;;;;;22.42;9.73;;;;;;;-1.73;64.51;101036.25;5071838;28;20047;-87
2022/12/17 21:47:52;;;;;;;24.17;10.85;;;;;;;-1.74;65.06;101037.25;5070853;28;20040;-87
2022/12/17 21:50:17;;;;;;;30.13;14.13;;;;;;;-1.68;64.21;101039.31;5072054;28;20096;-86
2022/12/17 21:52:42;;;;;;;15.07;8.05;;;;;;;-1.41;63.90;101032.22;5070828;28;20047;-89
2022/12/17 21:55:08;;;;;;;8.73;5.45;;;;;;;-1.14;63.14;101041.09;5071759;28;20032;-87
2022/12/17 21:57:33;;;;;;;10.63;5.78;;;;;;;-1.28;63.44;101036.34;5072480;28;20037;-88
2022/12/17 21:59:58;;;;;;;9.52;5.50;;;;;;;-1.37;63.55;101032.75;5072213;28;20032;-90
2022/12/17 22:02:23;;;;;;;10.38;4.32;;;;;;;-1.56;63.28;101040.78;5071777;28;20040;-90
2022/12/17 22:04:49;;;;;;;12.43;5.90;;;;;;;-1.71;64.35;101040.44;5071691;28;20097;-88
2022/12/17 22:07:14;;;;;;;8.43;5.00;;;;;;;-1.67;63.89;101041.00;5071993;28;20296;-86
2022/12/17 22:09:39;;;;;;;9.98;5.32;;;;;;;-1.77;64.56;101046.44;5071936;28;20249;-92
2022/12/17 22:14:48;;;;;;;8.55;3.80;;;;;;;-1.46;63.58;101045.19;5072072;28;20097;-88
2022/12/17 22:17:14;;;;;;;9.10;4.40;;;;;;;-1.36;63.77;101040.59;5070942;28;20473;-87
2022/12/17 22:19:40;;;;;;;7.78;4.85;;;;;;;-1.20;63.18;101041.75;5071491;28;20038;-85
2022/12/17 22:22:05;;;;;;;8.65;4.43;;;;;;;-1.07;62.35;101038.66;5071650;28;20029;-90
2022/12/17 22:24:31;;;;;;;11.57;3.65;;;;;;;-1.06;62.62;101035.81;5071924;28;20150;-89
2022/12/17 22:26:59;;;;;;;9.27;3.75;;;;;;;-1.11;62.79;101032.78;5071346;28;20442;-88
2022/12/17 22:34:55;;;;;;;7.93;3.45;;;;;;;-0.81;61.28;101037.00;5069757;28;20283;-88
2022/12/17 22:37:20;;;;;;;11.25;3.72;;;;;;;-0.86;61.23;101038.31;5069128;28;20036;-88
2022/12/17 22:39:45;;;;;;;26.03;4.90;;;;;;;-0.81;61.31;101032.47;5071178;28;20029;-86
2022/12/17 22:44:54;;;;;;;10.13;3.90;;;;;;;-0.65;60.86;101031.72;5070717;28;20448;-86
2022/12/17 22:47:20;;;;;;;6.77;3.00;;;;;;;-0.69;60.45;101041.06;5071347;28;20135;-88
2022/12/17 22:49:45;;;;;;;5.95;2.92;;;;;;;-0.71;60.43;101032.34;5070293;28;20253;-87
2022/12/17 22:52:10;;;;;;;5.25;3.30;;;;;;;-0.64;60.19;101035.25;5070643;28;20055;-87
2022/12/17 22:54:36;;;;;;;10.98;3.05;;;;;;;-0.59;59.71;101041.00;5070958;28;20396;-88
2022/12/17 22:57:01;;;;;;;6.25;3.08;;;;;;;-0.60;60.31;101039.28;5070929;28;20434;-89
2022/12/17 22:59:26;;;;;;;8.77;2.63;;;;;;;-0.64;60.17;101035.25;5070600;28;20025;-87
2022/12/17 23:01:51;;;;;;;8.77;3.45;;;;;;;-0.62;59.61;101042.13;5071361;28;20033;-88
2022/12/17 23:04:17;;;;;;;6.43;2.45;;;;;;;-0.80;59.73;101041.34;5070071;28;20042;-87
2022/12/17 23:06:44;;;;;;;7.32;3.30;;;;;;;-0.71;60.31;101043.06;5070208;28;20370;-88
2022/12/17 23:09:10;;;;;;;8.15;3.92;;;;;;;-0.66;60.33;101039.94;5069041;28;20055;-86
2022/12/17 23:11:35;;;;;;;7.65;3.65;;;;;;;-0.64;59.91;101048.66;5070782;28;20028;-88
2022/12/17 23:14:02;;;;;;;9.57;4.05;;;;;;;-0.71;59.73;101053.78;5069664;28;20041;-88
2022/12/17 23:16:27;;;;;;;6.32;3.33;;;;;;;-0.65;59.87;101058.50;5070436;28;20159;-87
2022/12/17 23:18:54;;;;;;;7.57;3.40;;;;;;;-0.63;59.45;101045.81;5070689;28;20100;-88
2022/12/17 23:21:23;;;;;;;5.10;3.03;;;;;;;-0.61;59.62;101059.88;5070551;28;20276;-86
2022/12/17 23:23:49;;;;;;;7.43;3.85;;;;;;;-0.60;59.51;101052.69;5070696;28;20043;-88
2022/12/17 23:26:20;;;;;;;9.05;3.53;;;;;;;-0.53;59.43;101055.59;5070452;28;20086;-87
2022/12/17 23:28:45;;;;;;;7.80;3.88;;;;;;;-0.49;59.74;101051.59;5069911;28;20040;-88
2022/12/17 23:31:13;;;;;;;8.48;3.60;;;;;;;-0.47;59.31;101054.94;5070660;28;20032;-88
2022/12/17 23:33:39;;;;;;;9.05;3.35;;;;;;;-0.45;59.27;101042.22;5070199;28;20515;-89
2022/12/17 23:36:07;;;;;;;9.55;4.20;;;;;;;-0.46;59.05;101048.56;5070358;28;20032;-87
2022/12/17 23:38:33;;;;;;;9.07;4.57;;;;;;;-0.75;60.02;101047.06;5069273;28;20040;-89
2022/12/17 23:41:10;;;;;;;13.10;6.00;;;;;;;-0.59;59.43;101041.81;5069612;28;20032;-86
2022/12/17 23:43:36;;;;;;;21.33;4.93;;;;;;;-0.74;60.39;101048.75;5069382;28;20496;-90
2022/12/17 23:46:02;;;;;;;10.23;3.75;;;;;;;-0.79;60.03;101038.50;5069196;28;20052;-89
2022/12/17 23:48:33;;;;;;;12.35;4.53;;;;;;;-0.80;60.23;101033.31;5069077;28;20080;-89
2022/12/17 23:50:59;;;;;;;8.15;3.92;;;;;;;-0.66;60.39;101039.94;5067767;28;20043;-89
2022/12/17 23:53:26;;;;;;;9.68;3.90;;;;;;;-0.68;60.15;101026.69;5068311;28;20052;-89
2022/12/17 23:55:52;;;;;;;7.28;3.20;;;;;;;-0.72;60.46;101042.25;5066802;28;20111;-89
2022/12/17 23:58:17;;;;;;;8.25;4.13;;;;;;;-0.69;60.49;101019.66;5068884;28;20266;-89
